FOON/MVB METAR and TAF weather

Enter ICAO airport designator
Station Type Date Time Source
FOON METAR 2018/12/10 18:00 UTC NOAA

FOON 101800Z 34004KT 9999 SCT013 SCT020TCU 27/24 Q1014


Station Type Date Time Source
FOON Decoded METAR 2018/12/10 18:00 UTC NOAA

Franceville / Mvengue, Gabon (FOON) 01-39S 013-26E
Dec 10, 2018 - 01:00 PM EST / 2018.12.10 1800 UTC
Wind: from the NNW (340 degrees) at 5 MPH (4 KT):0
Visibility: greater than 7 mile(s):0
Sky conditions: partly cloudy
Weather: Towering cumulus clouds observed
Temperature: 80 F (27 C)
Dew Point: 75 F (24 C)
Relative Humidity: 83%
Pressure (altimeter): 29.94 in. Hg (1014 hPa)
ob: FOON 101800Z 34004KT 9999 SCT013 SCT020TCU 27/24 Q1014
cycle: 18

Station Type Date Time Source
FOON TAF 2012/02/17 18:21 UTC NOAA

TAF TAF FOON 151600Z 1518/1618 20004KT 9999 BKN006
TEMPO 1603/1607 0200 FG OVC002
BECMG 1612/1614 TS SCT015 FEW020CB BKN030


Example: see airport list